createdAt,value
2023-03-25T00:01:53.181Z,7.37
2023-03-25T00:04:20.059Z,7.40
2023-03-25T00:06:47.140Z,5.77
2023-03-25T00:09:14.274Z,5.10
2023-03-25T00:11:41.318Z,6.47
2023-03-25T00:14:08.396Z,8.23
2023-03-25T00:16:35.277Z,5.10
2023-03-25T00:19:02.706Z,5.37
2023-03-25T00:21:29.637Z,5.73
2023-03-25T00:23:56.415Z,10.27
2023-03-25T00:26:23.325Z,6.40
2023-03-25T00:28:50.158Z,7.23
2023-03-25T00:31:17.178Z,5.07
2023-03-25T00:33:44.339Z,6.63
2023-03-25T00:36:13.884Z,5.40
2023-03-25T00:38:41.924Z,6.20
2023-03-25T00:41:13.042Z,5.43
2023-03-25T00:43:40.200Z,9.93
2023-03-25T00:46:07.152Z,7.60
2023-03-25T00:48:34.149Z,7.33
2023-03-25T00:51:07.452Z,7.27
2023-03-25T00:53:35.004Z,7.80
2023-03-25T00:56:02.744Z,9.80
2023-03-25T00:58:29.809Z,10.27
2023-03-25T01:00:57.824Z,7.73
2023-03-25T01:03:25.427Z,5.17
2023-03-25T01:05:54.918Z,6.77
2023-03-25T01:08:25.673Z,6.20
2023-03-25T01:10:54.515Z,6.83
2023-03-25T01:13:22.132Z,6.73
2023-03-25T01:15:50.649Z,6.37
2023-03-25T01:18:17.716Z,10.10
2023-03-25T01:20:44.570Z,5.80
2023-03-25T01:23:11.614Z,6.40
2023-03-25T01:25:38.427Z,6.90
2023-03-25T01:28:05.846Z,6.73
2023-03-25T01:30:32.632Z,6.70
2023-03-25T01:32:59.551Z,7.20
2023-03-25T01:35:26.438Z,9.73
2023-03-25T01:37:54.812Z,10.23
2023-03-25T01:40:23.750Z,11.00
2023-03-25T01:42:51.172Z,7.90
2023-03-25T01:45:25.757Z,8.47
2023-03-25T01:47:56.323Z,7.90
2023-03-25T01:50:23.294Z,6.63
2023-03-25T01:52:52.134Z,6.93
2023-03-25T01:55:24.871Z,7.70
2023-03-25T01:57:54.915Z,7.13
2023-03-25T02:00:22.592Z,9.77
2023-03-25T02:02:51.037Z,16.40
2023-03-25T02:05:41.548Z,15.70
2023-03-25T02:08:09.384Z,11.33
2023-03-25T02:10:37.543Z,9.60
2023-03-25T02:13:06.457Z,5.63
2023-03-25T02:15:48.503Z,5.53
2023-03-25T02:18:23.132Z,4.43
2023-03-25T02:21:03.338Z,4.23
2023-03-25T02:23:30.227Z,9.33
2023-03-25T02:26:00.104Z,8.13
2023-03-25T02:28:29.964Z,6.30
2023-03-25T02:31:08.854Z,7.47
2023-03-25T02:33:45.790Z,9.77
2023-03-25T02:36:25.801Z,7.37
2023-03-25T02:38:54.106Z,6.97
2023-03-25T02:41:41.235Z,7.97
2023-03-25T02:44:08.759Z,9.60
2023-03-25T02:46:36.522Z,7.00
2023-03-25T02:49:08.981Z,7.93
2023-03-25T02:51:38.882Z,15.63
2023-03-25T02:54:08.916Z,6.63
2023-03-25T02:56:37.404Z,5.70
2023-03-25T02:59:05.182Z,6.03
2023-03-25T03:01:35.009Z,5.53
2023-03-25T03:04:02.556Z,7.33
2023-03-25T03:06:29.476Z,6.43
2023-03-25T03:09:15.061Z,4.63
2023-03-25T03:11:54.739Z,5.03
2023-03-25T03:14:32.195Z,5.37
2023-03-25T03:17:00.855Z,4.93
2023-03-25T03:19:41.158Z,5.10
2023-03-25T03:22:08.738Z,6.17
2023-03-25T03:24:38.344Z,5.77
2023-03-25T03:27:08.079Z,6.30
2023-03-25T03:29:34.865Z,7.07
2023-03-25T03:32:18.929Z,7.20
2023-03-25T03:34:48.483Z,6.97
2023-03-25T03:37:17.105Z,7.17
2023-03-25T03:39:45.246Z,7.80
2023-03-25T03:42:20.750Z,9.87
2023-03-25T03:44:50.979Z,6.63
2023-03-25T03:47:24.101Z,6.73
2023-03-25T03:49:53.107Z,7.50
2023-03-25T03:52:19.843Z,7.03
2023-03-25T03:54:51.866Z,7.90
2023-03-25T03:57:27.910Z,6.50
2023-03-25T03:59:59.872Z,7.20
2023-03-25T04:02:39.185Z,7.80
2023-03-25T04:05:11.690Z,9.30
2023-03-25T04:07:43.685Z,9.17
2023-03-25T04:10:20.732Z,6.93
2023-03-25T04:12:52.807Z,6.80
2023-03-25T04:15:19.838Z,6.67
2023-03-25T04:17:48.294Z,6.50
2023-03-25T04:20:16.107Z,7.00
2023-03-25T04:22:46.084Z,10.50
2023-03-25T04:25:14.141Z,7.67
2023-03-25T04:27:41.369Z,8.00
2023-03-25T04:30:08.789Z,9.63
2023-03-25T04:32:35.564Z,5.43
2023-03-25T04:35:02.651Z,6.43
2023-03-25T04:37:29.538Z,6.63
2023-03-25T04:40:00.498Z,6.53
2023-03-25T04:42:33.212Z,11.33
2023-03-25T04:45:00.689Z,8.60
2023-03-25T04:47:27.965Z,6.27
2023-03-25T04:49:54.838Z,7.93
2023-03-25T04:52:21.622Z,9.77
2023-03-25T04:54:48.549Z,9.63
2023-03-25T04:57:15.478Z,6.27
2023-03-25T04:59:42.479Z,6.23
2023-03-25T05:02:13.742Z,6.30
2023-03-25T05:04:47.906Z,5.90
2023-03-25T05:07:16.777Z,7.93
2023-03-25T05:09:43.736Z,6.40
2023-03-25T05:12:11.667Z,5.93
2023-03-25T05:14:38.572Z,7.70
2023-03-25T05:17:05.442Z,8.73
2023-03-25T05:19:35.414Z,10.50
2023-03-25T05:22:04.765Z,9.00
2023-03-25T05:24:31.614Z,13.47
2023-03-25T05:26:58.448Z,9.17
2023-03-25T05:29:25.308Z,7.83
2023-03-25T05:31:52.172Z,6.80
2023-03-25T05:34:20.882Z,10.13
2023-03-25T05:36:47.900Z,8.23
2023-03-25T05:39:15.544Z,8.67
2023-03-25T05:41:42.476Z,8.07
2023-03-25T05:44:10.365Z,8.47
2023-03-25T05:46:37.271Z,6.17
2023-03-25T05:49:04.179Z,6.63
2023-03-25T05:51:37.900Z,6.47
2023-03-25T05:54:11.542Z,7.40
2023-03-25T05:56:39.472Z,6.57
2023-03-25T05:59:06.277Z,7.23
2023-03-25T06:01:34.426Z,6.00
2023-03-25T06:04:02.351Z,8.73
2023-03-25T06:06:32.448Z,7.80
2023-03-25T06:08:59.703Z,6.73
2023-03-25T06:11:26.636Z,10.60
2023-03-25T06:13:53.492Z,6.47
2023-03-25T06:16:21.595Z,8.87
2023-03-25T06:18:51.295Z,8.93
2023-03-25T06:21:19.126Z,8.67
2023-03-25T06:23:48.299Z,8.20
2023-03-25T06:26:16.214Z,9.10
2023-03-25T06:28:43.241Z,6.77
2023-03-25T06:31:14.079Z,7.90
2023-03-25T06:33:42.865Z,6.87
2023-03-25T06:36:11.966Z,8.37
2023-03-25T06:38:39.484Z,8.37
2023-03-25T06:41:10.069Z,8.90
2023-03-25T06:43:38.217Z,7.30
2023-03-25T06:46:10.901Z,9.13
2023-03-25T06:48:57.996Z,9.93
2023-03-25T06:51:24.997Z,10.27
2023-03-25T06:53:51.874Z,9.27
2023-03-25T06:56:18.788Z,7.83
2023-03-25T06:58:45.719Z,11.90
2023-03-25T07:01:12.672Z,10.97
2023-03-25T07:03:39.579Z,8.00
2023-03-25T07:06:06.700Z,8.27
2023-03-25T07:08:33.793Z,6.13
2023-03-25T07:11:01.711Z,7.50
2023-03-25T07:13:28.601Z,10.30
2023-03-25T07:15:56.444Z,8.40
2023-03-25T07:18:23.432Z,6.90
2023-03-25T07:20:50.199Z,6.20
2023-03-25T07:23:17.263Z,6.07
2023-03-25T07:25:44.262Z,8.67
2023-03-25T07:28:11.091Z,7.50
2023-03-25T07:30:43.990Z,6.47
2023-03-25T07:33:10.855Z,6.30
2023-03-25T07:35:37.755Z,5.23
2023-03-25T07:38:05.201Z,8.87
2023-03-25T07:40:32.048Z,6.73
2023-03-25T07:42:59.058Z,7.47
2023-03-25T07:45:55.231Z,4.43
2023-03-25T07:48:22.997Z,4.97
2023-03-25T07:50:51.062Z,8.27
2023-03-25T07:53:18.347Z,6.33
2023-03-25T07:55:45.920Z,10.87
2023-03-25T07:58:13.274Z,10.93
2023-03-25T08:00:40.172Z,8.30
2023-03-25T08:03:07.067Z,6.47
2023-03-25T08:05:34.031Z,5.77
2023-03-25T08:08:01.138Z,6.20
2023-03-25T08:10:28.229Z,8.60
2023-03-25T08:12:55.194Z,7.47
2023-03-25T08:15:24.985Z,8.30
2023-03-25T08:17:54.771Z,6.80
2023-03-25T08:20:21.768Z,5.03
2023-03-25T08:22:48.613Z,12.07
2023-03-25T08:25:15.534Z,5.00
2023-03-25T08:27:42.547Z,6.27
2023-03-25T08:30:10.458Z,8.90
2023-03-25T08:32:38.669Z,4.97
2023-03-25T08:35:06.045Z,8.80
2023-03-25T08:37:37.854Z,6.27
2023-03-25T08:40:11.452Z,9.00
2023-03-25T08:42:38.661Z,4.87
2023-03-25T08:45:06.009Z,6.00
2023-03-25T08:47:32.876Z,7.27
2023-03-25T08:49:59.741Z,5.87
2023-03-25T08:52:26.721Z,6.10
2023-03-25T08:54:53.663Z,5.57
2023-03-25T08:57:20.785Z,7.63
2023-03-25T08:59:47.699Z,7.70
2023-03-25T09:02:14.549Z,5.40
2023-03-25T09:04:41.652Z,8.50
2023-03-25T09:07:12.533Z,9.23
2023-03-25T09:09:40.574Z,5.13
2023-03-25T09:12:07.878Z,4.23
2023-03-25T09:14:34.728Z,6.23
2023-03-25T09:17:01.534Z,6.47
2023-03-25T09:19:28.488Z,4.00
2023-03-25T09:21:55.412Z,7.63
2023-03-25T09:24:23.032Z,4.67
2023-03-25T09:26:49.896Z,3.83
2023-03-25T09:29:17.047Z,7.00
2023-03-25T09:31:43.948Z,4.00
2023-03-25T09:34:11.200Z,4.87
2023-03-25T09:36:38.233Z,3.20
2023-03-25T09:39:05.023Z,3.53
2023-03-25T09:41:42.290Z,3.07
2023-03-25T09:44:28.893Z,3.57
2023-03-25T09:46:56.635Z,18.73
2023-03-25T09:49:25.941Z,8.90
2023-03-25T09:51:53.987Z,4.23
2023-03-25T09:54:31.887Z,8.50
2023-03-25T09:57:04.580Z,6.93
2023-03-25T09:59:37.526Z,14.87
2023-03-25T10:02:07.474Z,5.47
2023-03-25T10:04:43.128Z,4.33
2023-03-25T10:07:18.910Z,7.60
2023-03-25T10:10:06.067Z,4.43
2023-03-25T10:12:37.827Z,14.83
2023-03-25T10:15:10.583Z,20.97
2023-03-25T10:17:48.940Z,15.50
2023-03-25T10:20:22.032Z,9.83
2023-03-25T10:23:07.880Z,3.87
2023-03-25T10:25:38.424Z,5.57
2023-03-25T10:28:05.857Z,4.53
2023-03-25T10:30:39.451Z,2.23
2023-03-25T10:33:10.602Z,4.30
2023-03-25T10:35:39.930Z,3.00
2023-03-25T10:38:14.437Z,2.90
2023-03-25T10:40:44.956Z,3.80
2023-03-25T10:43:23.969Z,3.17
2023-03-25T10:45:52.569Z,1.50
2023-03-25T10:48:21.664Z,2.90
2023-03-25T10:50:49.346Z,1.67
2023-03-25T10:53:26.617Z,2.47
2023-03-25T10:56:25.938Z,2.30
2023-03-25T10:58:57.059Z,3.60
2023-03-25T11:01:42.931Z,2.57
2023-03-25T11:04:12.179Z,2.80
2023-03-25T11:06:42.392Z,1.60
2023-03-25T11:09:32.658Z,1.43
2023-03-25T11:12:05.058Z,7.10
2023-03-25T11:14:36.426Z,3.40
2023-03-25T11:17:05.854Z,1.77
2023-03-25T11:19:32.822Z,2.50
2023-03-25T11:22:01.993Z,2.10
2023-03-25T11:24:34.090Z,7.70
2023-03-25T11:27:01.428Z,5.33
2023-03-25T11:29:28.504Z,2.93
2023-03-25T11:32:14.802Z,2.40
2023-03-25T11:34:44.401Z,3.83
2023-03-25T11:37:19.161Z,3.30
2023-03-25T11:39:50.861Z,3.47
2023-03-25T11:42:17.774Z,2.93
2023-03-25T11:44:52.585Z,1.80
2023-03-25T11:47:26.666Z,2.70
2023-03-25T11:49:54.327Z,3.73
2023-03-25T11:52:22.472Z,3.23
2023-03-25T11:54:49.337Z,2.43
2023-03-25T11:57:32.817Z,3.40
2023-03-25T12:00:18.674Z,4.50
2023-03-25T12:02:46.293Z,5.03
2023-03-25T12:05:16.885Z,2.77
2023-03-25T12:07:47.964Z,1.83
2023-03-25T12:10:21.038Z,3.70
2023-03-25T12:12:53.681Z,2.60
2023-03-25T12:15:31.353Z,1.40
2023-03-25T12:18:07.295Z,3.07
2023-03-25T12:20:36.933Z,3.17
2023-03-25T12:23:06.210Z,2.07
2023-03-25T12:25:45.078Z,3.00
2023-03-25T12:28:24.545Z,2.37
2023-03-25T12:30:51.987Z,2.27
2023-03-25T12:33:26.545Z,3.57
2023-03-25T12:36:12.572Z,1.90
2023-03-25T12:38:59.629Z,2.57
2023-03-25T12:41:34.266Z,2.20
2023-03-25T12:44:16.069Z,3.17
2023-03-25T12:46:45.985Z,2.20
2023-03-25T12:49:31.672Z,2.30
2023-03-25T12:52:15.035Z,3.17
2023-03-25T12:55:00.957Z,4.83
2023-03-25T12:57:46.459Z,3.53
2023-03-25T13:00:25.725Z,2.97
2023-03-25T13:03:08.450Z,5.97
2023-03-25T13:05:35.555Z,4.00
2023-03-25T13:08:11.278Z,2.07
2023-03-25T13:10:38.895Z,2.87
2023-03-25T13:13:20.496Z,2.37
2023-03-25T13:15:49.212Z,4.03
2023-03-25T13:18:21.558Z,1.90
2023-03-25T13:20:57.622Z,2.37
2023-03-25T13:23:25.440Z,3.83
2023-03-25T13:25:56.912Z,1.97
2023-03-25T13:28:26.358Z,3.57
2023-03-25T13:30:54.293Z,2.23
2023-03-25T13:33:25.261Z,2.37
2023-03-25T13:35:58.849Z,2.30
2023-03-25T13:38:28.702Z,2.20
2023-03-25T13:40:58.306Z,5.70
2023-03-25T13:43:30.829Z,10.13
2023-03-25T13:46:09.042Z,6.90
2023-03-25T13:48:44.960Z,5.67
2023-03-25T13:51:11.865Z,6.33
2023-03-25T13:53:39.033Z,2.60
2023-03-25T13:56:28.358Z,3.70
2023-03-25T13:59:19.495Z,4.40
2023-03-25T14:02:15.667Z,3.47
2023-03-25T14:04:51.727Z,12.03
2023-03-25T14:07:57.396Z,17.07
2023-03-25T14:10:42.744Z,5.83
2023-03-25T14:13:12.378Z,7.60
2023-03-25T14:15:40.880Z,2.77
2023-03-25T14:18:14.419Z,1.80
2023-03-25T14:20:41.830Z,3.37
2023-03-25T14:23:12.748Z,5.63
2023-03-25T14:25:41.441Z,1.67
2023-03-25T14:28:09.690Z,3.50
2023-03-25T14:30:36.936Z,9.13
2023-03-25T14:33:04.259Z,8.03
2023-03-25T14:35:34.152Z,4.93
2023-03-25T14:38:10.101Z,3.40
2023-03-25T14:40:50.807Z,7.63
2023-03-25T14:43:46.943Z,4.40
2023-03-25T14:46:14.671Z,5.00
2023-03-25T14:49:05.950Z,6.27
2023-03-25T14:51:35.085Z,6.67
2023-03-25T14:54:01.828Z,3.43
2023-03-25T14:56:36.623Z,5.17
2023-03-25T14:59:10.661Z,9.80
2023-03-25T15:01:38.018Z,5.93
2023-03-25T15:04:14.565Z,3.93
2023-03-25T15:06:42.224Z,2.57
2023-03-25T15:09:12.561Z,2.30
2023-03-25T15:11:41.986Z,3.43
2023-03-25T15:14:16.192Z,1.87
2023-03-25T15:16:43.029Z,2.00
2023-03-25T15:19:14.383Z,1.60
2023-03-25T15:22:00.536Z,1.90
2023-03-25T15:24:30.140Z,5.73
2023-03-25T15:26:57.965Z,1.10
2023-03-25T15:29:35.534Z,3.43
2023-03-25T15:32:21.155Z,2.37
2023-03-25T15:34:54.491Z,2.90
2023-03-25T15:37:46.913Z,2.57
2023-03-25T15:40:33.276Z,3.27
2023-03-25T15:43:00.113Z,2.37
2023-03-25T15:45:29.624Z,2.63
2023-03-25T15:48:03.042Z,2.07
2023-03-25T15:50:49.926Z,3.90
2023-03-25T15:53:41.778Z,4.67
2023-03-25T15:56:12.797Z,6.43
2023-03-25T15:58:58.198Z,5.50
2023-03-25T16:01:29.522Z,6.47
2023-03-25T16:03:59.041Z,7.17
2023-03-25T16:06:26.902Z,10.10
2023-03-25T16:08:55.754Z,8.00
2023-03-25T16:11:22.540Z,5.80
2023-03-25T16:14:01.114Z,6.93
2023-03-25T16:16:28.540Z,8.17
2023-03-25T16:18:56.045Z,5.00
2023-03-25T16:21:22.948Z,2.87
2023-03-25T16:23:53.238Z,5.20
2023-03-25T16:26:34.840Z,4.07
2023-03-25T16:29:09.109Z,4.63
2023-03-25T16:31:43.045Z,10.83
2023-03-25T16:34:14.596Z,4.03
2023-03-25T16:36:44.835Z,5.67
2023-03-25T16:39:13.832Z,3.30
2023-03-25T16:41:43.478Z,6.00
2023-03-25T16:44:13.925Z,2.90
2023-03-25T16:46:41.039Z,3.47
2023-03-25T16:49:12.623Z,8.67
2023-03-25T16:51:39.590Z,8.30
2023-03-25T16:54:08.832Z,4.50
2023-03-25T16:56:39.283Z,6.00
2023-03-25T16:59:07.909Z,4.20
2023-03-25T17:01:39.594Z,8.10
2023-03-25T17:04:11.839Z,4.80
2023-03-25T17:06:41.315Z,5.13
2023-03-25T17:09:13.304Z,6.00
2023-03-25T17:11:40.424Z,5.57
2023-03-25T17:14:09.152Z,13.50
2023-03-25T17:16:36.843Z,7.40
2023-03-25T17:19:04.721Z,5.37
2023-03-25T17:21:33.204Z,3.30
2023-03-25T17:24:01.324Z,3.70
2023-03-25T17:26:54.318Z,2.57
2023-03-25T17:29:22.259Z,2.30
2023-03-25T17:31:59.401Z,3.87
2023-03-25T17:34:26.637Z,2.17
2023-03-25T17:36:58.745Z,2.60
2023-03-25T17:39:27.443Z,3.17
2023-03-25T17:41:58.985Z,6.87
2023-03-25T17:44:26.611Z,2.60
2023-03-25T17:46:53.576Z,8.80
2023-03-25T17:49:20.524Z,2.60
2023-03-25T17:51:47.633Z,5.77
2023-03-25T17:54:14.736Z,37.90
2023-03-25T17:56:42.165Z,40.13
2023-03-25T17:59:23.114Z,31.17
2023-03-25T18:01:50.433Z,21.57
2023-03-25T18:04:18.018Z,16.67
2023-03-25T18:06:45.021Z,11.73
2023-03-25T18:09:19.027Z,10.33
2023-03-25T18:11:47.001Z,8.80
2023-03-25T18:14:13.817Z,19.70
2023-03-25T18:16:40.782Z,11.33
2023-03-25T18:19:27.666Z,8.93
2023-03-25T18:21:55.322Z,10.57
2023-03-25T18:24:22.576Z,12.10
2023-03-25T18:26:50.095Z,14.70
2023-03-25T18:29:19.158Z,13.73
2023-03-25T18:31:46.547Z,13.77
2023-03-25T18:34:14.098Z,13.27
2023-03-25T18:36:42.254Z,11.10
2023-03-25T18:39:13.834Z,13.03
2023-03-25T18:41:41.410Z,13.63
2023-03-25T18:44:08.482Z,10.50
2023-03-25T18:46:35.612Z,9.57
2023-03-25T18:49:03.102Z,9.00
2023-03-25T18:51:30.325Z,7.67
2023-03-25T18:53:57.427Z,8.07
2023-03-25T18:56:25.615Z,6.13
2023-03-25T18:58:53.140Z,5.30
2023-03-25T19:01:21.891Z,7.47
2023-03-25T19:03:50.752Z,7.40
2023-03-25T19:06:19.061Z,14.77
2023-03-25T19:08:46.898Z,6.73
2023-03-25T19:11:20.831Z,6.63
2023-03-25T19:13:49.276Z,7.47
2023-03-25T19:16:16.117Z,9.47
2023-03-25T19:18:43.065Z,11.00
2023-03-25T19:21:10.506Z,8.60
2023-03-25T19:23:37.817Z,11.90
2023-03-25T19:26:04.960Z,9.17
2023-03-25T19:28:31.982Z,13.53
2023-03-25T19:31:00.334Z,11.73
2023-03-25T19:33:31.935Z,14.60
2023-03-25T19:36:02.042Z,12.33
2023-03-25T19:38:30.188Z,10.90
2023-03-25T19:41:01.569Z,8.33
2023-03-25T19:43:28.607Z,7.23
2023-03-25T19:45:56.467Z,8.43
2023-03-25T19:48:23.348Z,15.60
2023-03-25T19:50:52.831Z,13.70
2023-03-25T19:53:20.126Z,11.03
2023-03-25T19:55:46.923Z,16.60
2023-03-25T19:58:14.356Z,11.27
2023-03-25T20:00:42.249Z,6.50
2023-03-25T20:03:09.163Z,9.40
2023-03-25T20:05:37.044Z,12.50
2023-03-25T20:08:04.507Z,15.20
2023-03-25T20:10:31.790Z,11.70
2023-03-25T20:12:59.050Z,13.23
2023-03-25T20:15:26.529Z,13.10
2023-03-25T20:17:54.405Z,15.97
2023-03-25T20:20:21.738Z,17.10
2023-03-25T20:22:49.099Z,40.43
2023-03-25T20:25:16.578Z,105.70
2023-03-25T20:27:43.736Z,26.50
2023-03-25T20:30:11.982Z,19.03
2023-03-25T20:32:41.259Z,32.07
2023-03-25T20:35:10.572Z,25.80
2023-03-25T20:37:38.817Z,20.40
2023-03-25T20:40:06.990Z,21.87
2023-03-25T20:42:34.024Z,33.20
2023-03-25T20:45:00.979Z,20.87
2023-03-25T20:47:28.389Z,24.57
2023-03-25T20:49:55.250Z,20.10
2023-03-25T20:52:22.238Z,25.27
2023-03-25T20:54:49.640Z,18.80
2023-03-25T20:57:16.690Z,21.77
2023-03-25T20:59:44.248Z,19.17
2023-03-25T21:02:11.586Z,17.27
2023-03-25T21:04:38.735Z,16.23
2023-03-25T21:07:05.733Z,15.10
2023-03-25T21:09:32.713Z,13.53
2023-03-25T21:11:59.578Z,10.20
2023-03-25T21:14:26.674Z,10.20
2023-03-25T21:16:54.770Z,12.33
2023-03-25T21:19:21.945Z,16.57
2023-03-25T21:21:48.752Z,20.33
2023-03-25T21:24:16.977Z,17.03
2023-03-25T21:26:43.804Z,32.47
2023-03-25T21:29:10.736Z,31.10
2023-03-25T21:31:37.680Z,22.90
2023-03-25T21:34:04.767Z,31.00
2023-03-25T21:36:32.530Z,24.73
2023-03-25T21:39:00.957Z,30.00
2023-03-25T21:41:29.413Z,19.27
2023-03-25T21:43:56.686Z,14.83
2023-03-25T21:46:29.687Z,23.97
2023-03-25T21:48:58.809Z,15.30
2023-03-25T21:51:26.764Z,12.97
2023-03-25T21:53:53.855Z,8.83
2023-03-25T21:56:21.767Z,14.00
2023-03-25T21:58:49.066Z,14.00
2023-03-25T22:01:17.188Z,17.00
2023-03-25T22:03:47.104Z,16.47
2023-03-25T22:06:18.194Z,12.80
2023-03-25T22:08:45.349Z,13.77
2023-03-25T22:11:14.118Z,9.50
2023-03-25T22:13:41.617Z,15.00
2023-03-25T22:16:09.467Z,16.27
2023-03-25T22:18:36.452Z,14.17
2023-03-25T22:21:08.037Z,8.73
2023-03-25T22:23:35.593Z,6.40
2023-03-25T22:26:02.612Z,5.53
2023-03-25T22:28:29.493Z,7.77
2023-03-25T22:30:56.753Z,5.13
2023-03-25T22:33:23.504Z,10.17
2023-03-25T22:35:53.184Z,5.27
2023-03-25T22:38:21.511Z,5.20
2023-03-25T22:40:48.388Z,6.90
2023-03-25T22:43:15.193Z,6.20
2023-03-25T22:45:41.976Z,4.30
2023-03-25T22:48:08.818Z,6.60
2023-03-25T22:50:35.682Z,8.10
2023-03-25T22:53:02.542Z,6.20
2023-03-25T22:55:29.622Z,7.73
2023-03-25T22:57:56.412Z,5.97
2023-03-25T23:00:25.370Z,4.73
2023-03-25T23:02:52.308Z,5.67
2023-03-25T23:05:19.676Z,4.17
2023-03-25T23:07:46.490Z,5.17
2023-03-25T23:10:16.239Z,5.93
2023-03-25T23:12:43.177Z,6.83
2023-03-25T23:15:10.130Z,6.63
2023-03-25T23:17:37.194Z,13.80
2023-03-25T23:20:07.359Z,5.03
2023-03-25T23:22:34.257Z,5.73
2023-03-25T23:25:01.128Z,5.73
2023-03-25T23:27:29.798Z,3.80
2023-03-25T23:29:56.913Z,7.33
2023-03-25T23:32:23.886Z,3.47
2023-03-25T23:34:54.840Z,5.27
2023-03-25T23:37:22.154Z,5.47
2023-03-25T23:39:49.005Z,4.17
2023-03-25T23:42:15.890Z,4.67
2023-03-25T23:44:43.949Z,3.37
2023-03-25T23:47:10.969Z,3.43
2023-03-25T23:49:38.596Z,4.53
2023-03-25T23:52:11.438Z,4.37
2023-03-25T23:54:39.515Z,7.23
2023-03-25T23:57:06.552Z,5.73
2023-03-25T23:59:33.462Z,4.20
